createdAt,value
2022-08-06T00:01:05.346Z,420.2
2022-08-06T00:02:49.036Z,422.1
2022-08-06T00:04:32.751Z,422.2
2022-08-06T00:06:16.446Z,420.9
2022-08-06T00:08:00.160Z,420.3
2022-08-06T00:09:43.853Z,421.9
2022-08-06T00:11:27.553Z,421.3
2022-08-06T00:13:11.252Z,420.4
2022-08-06T00:14:54.966Z,424.4
2022-08-06T00:16:38.660Z,419.7
2022-08-06T00:18:22.364Z,420
2022-08-06T00:20:06.067Z,419.2
2022-08-06T00:21:49.766Z,419.5
2022-08-06T00:23:33.474Z,420.2
2022-08-06T00:25:17.172Z,419
2022-08-06T00:27:00.887Z,417.2
2022-08-06T00:28:44.591Z,417
2022-08-06T00:30:28.285Z,415.9
2022-08-06T00:32:12.051Z,414.3
2022-08-06T00:33:55.770Z,413.8
2022-08-06T00:35:39.394Z,416.3
2022-08-06T00:37:23.093Z,417.7
2022-08-06T00:39:06.793Z,415.5
2022-08-06T00:40:50.614Z,417.3
2022-08-06T00:42:34.210Z,417.2
2022-08-06T00:44:17.947Z,416.4
2022-08-06T00:46:01.609Z,419.1
2022-08-06T00:47:45.313Z,419.8
2022-08-06T00:49:29.070Z,416.5
2022-08-06T00:51:12.757Z,415.3
2022-08-06T00:52:56.422Z,418.1
2022-08-06T00:54:40.105Z,417.7
2022-08-06T00:56:23.812Z,414.2
2022-08-06T00:58:07.543Z,412.1
2022-08-06T00:59:51.214Z,413.6
2022-08-06T01:01:34.919Z,416.3
2022-08-06T01:03:18.630Z,419.2
2022-08-06T01:05:02.319Z,416.1
2022-08-06T01:06:46.022Z,412
2022-08-06T01:08:29.736Z,413.8
2022-08-06T01:10:13.422Z,417.5
2022-08-06T01:11:57.131Z,417.4
2022-08-06T01:13:40.826Z,417
2022-08-06T01:15:25.746Z,417
2022-08-06T01:17:08.229Z,416.7
2022-08-06T01:18:51.931Z,419
2022-08-06T01:20:35.633Z,420.7
2022-08-06T01:22:19.330Z,419.7
2022-08-06T01:24:03.043Z,417
2022-08-06T01:25:46.744Z,414.2
2022-08-06T01:27:30.432Z,414.9
2022-08-06T01:29:14.147Z,412.7
2022-08-06T01:30:57.887Z,412.4
2022-08-06T01:32:41.540Z,411.7
2022-08-06T01:34:25.267Z,410.4
2022-08-06T01:36:08.950Z,409
2022-08-06T01:37:52.673Z,407.6
2022-08-06T01:39:36.359Z,407.9
2022-08-06T01:41:20.053Z,410.4
2022-08-06T01:43:03.758Z,409.5
2022-08-06T01:44:47.467Z,408.4
2022-08-06T01:46:31.158Z,405.1
2022-08-06T01:48:14.875Z,405.4
2022-08-06T01:49:58.582Z,407.2
2022-08-06T01:51:42.268Z,403.9
2022-08-06T01:53:25.977Z,400.3
2022-08-06T01:55:09.667Z,397.6
2022-08-06T01:56:53.377Z,391.8
2022-08-06T01:58:37.095Z,389.9
2022-08-06T02:00:20.769Z,390.8
2022-08-06T02:02:04.485Z,391.5
2022-08-06T02:03:48.183Z,392.1
2022-08-06T02:05:31.884Z,392.7
2022-08-06T02:07:15.597Z,390.4
2022-08-06T02:08:59.318Z,391.3
2022-08-06T02:10:42.995Z,391.9
2022-08-06T02:12:26.695Z,391.2
2022-08-06T02:14:10.407Z,392.3
2022-08-06T02:15:54.096Z,392.6
2022-08-06T02:17:37.798Z,395.5
2022-08-06T02:19:21.495Z,395.8
2022-08-06T02:21:05.202Z,389.8
2022-08-06T02:22:48.908Z,387.6
2022-08-06T02:24:32.603Z,387.6
2022-08-06T02:26:16.315Z,387.4
2022-08-06T02:28:00.029Z,388.7
2022-08-06T02:29:43.719Z,389.1
2022-08-06T02:31:27.417Z,388.1
2022-08-06T02:33:11.107Z,389.6
2022-08-06T02:34:54.835Z,389.7
2022-08-06T02:36:38.518Z,389.3
2022-08-06T02:38:22.215Z,390.1
2022-08-06T02:40:05.932Z,392.5
2022-08-06T02:41:49.625Z,392
2022-08-06T02:43:33.325Z,391.4
2022-08-06T02:45:17.043Z,391.1
2022-08-06T02:47:00.731Z,390.3
2022-08-06T02:48:44.432Z,387.3
2022-08-06T02:50:28.141Z,388.8
2022-08-06T02:52:11.835Z,390.3
2022-08-06T02:53:55.543Z,394.6
2022-08-06T02:55:39.277Z,396.2
2022-08-06T02:57:22.943Z,397
2022-08-06T02:59:06.647Z,396.7
2022-08-06T03:00:50.352Z,394.4
2022-08-06T03:02:34.054Z,393.5
2022-08-06T03:04:17.760Z,392.5
2022-08-06T03:06:01.458Z,390.9
2022-08-06T03:07:45.159Z,393.8
2022-08-06T03:09:28.863Z,395.7
2022-08-06T03:11:12.576Z,392.1
2022-08-06T03:12:56.286Z,389.9
2022-08-06T03:14:39.972Z,392.4
2022-08-06T03:16:23.663Z,393.5
2022-08-06T03:18:07.378Z,392.7
2022-08-06T03:19:51.071Z,392.1
2022-08-06T03:21:34.776Z,392.9
2022-08-06T03:23:18.479Z,393.4
2022-08-06T03:25:02.174Z,391.8
2022-08-06T03:26:45.899Z,391.7
2022-08-06T03:28:29.584Z,393.5
2022-08-06T03:30:13.279Z,394.2
2022-08-06T03:31:56.987Z,397
2022-08-06T03:33:40.685Z,393.6
2022-08-06T03:35:24.392Z,392.1
2022-08-06T03:37:08.092Z,389.7
2022-08-06T03:38:51.808Z,388.3
2022-08-06T03:40:35.491Z,389.5
2022-08-06T03:42:19.198Z,391.6
2022-08-06T03:44:02.895Z,392.4
2022-08-06T03:45:46.613Z,390.4
2022-08-06T03:47:30.310Z,391
2022-08-06T03:49:13.996Z,393
2022-08-06T03:50:57.712Z,392.6
2022-08-06T03:52:41.428Z,389.5
2022-08-06T03:54:25.108Z,388.5
2022-08-06T03:56:08.808Z,387.8
2022-08-06T03:57:52.525Z,392.1
2022-08-06T03:59:36.210Z,391.5
2022-08-06T04:01:19.919Z,390.6
2022-08-06T04:03:03.612Z,394.6
2022-08-06T04:04:47.344Z,394
2022-08-06T04:06:31.028Z,393
2022-08-06T04:08:14.731Z,390.4
2022-08-06T04:09:58.430Z,390.3
2022-08-06T04:11:42.127Z,391.5
2022-08-06T04:13:25.820Z,389.4
2022-08-06T04:15:09.539Z,386.9
2022-08-06T04:16:53.247Z,384.2
2022-08-06T04:18:36.952Z,386
2022-08-06T04:20:20.628Z,384
2022-08-06T04:22:04.331Z,383.1
2022-08-06T04:23:48.055Z,387.2
2022-08-06T04:25:31.753Z,390.6
2022-08-06T04:28:59.167Z,385.3
2022-08-06T04:30:42.850Z,387.5
2022-08-06T04:32:26.542Z,391.4
2022-08-06T04:34:10.248Z,392
2022-08-06T04:35:53.950Z,391
2022-08-06T04:37:37.667Z,386.8
2022-08-06T04:39:21.347Z,384.9
2022-08-06T04:41:05.050Z,386.1
2022-08-06T04:42:48.755Z,385.4
2022-08-06T04:44:32.488Z,385.6
2022-08-06T04:46:16.152Z,385.3
2022-08-06T04:47:59.860Z,384.2
2022-08-06T04:49:43.558Z,383.6
2022-08-06T04:51:27.269Z,381.3
2022-08-06T04:53:10.975Z,381.3
2022-08-06T04:54:54.667Z,380.7
2022-08-06T04:56:38.359Z,383.8
2022-08-06T04:58:22.069Z,384.7
2022-08-06T05:00:05.771Z,381.8
2022-08-06T05:01:49.473Z,385.8
2022-08-06T05:03:33.182Z,386.5
2022-08-06T05:05:16.871Z,382.7
2022-08-06T05:07:00.590Z,382.3
2022-08-06T05:08:44.290Z,381.8
2022-08-06T05:10:27.978Z,380
2022-08-06T05:12:11.685Z,379.1
2022-08-06T05:13:55.384Z,380.8
2022-08-06T05:15:39.078Z,386.7
2022-08-06T05:17:22.798Z,387.8
2022-08-06T05:19:15.739Z,387.4
2022-08-06T05:20:50.192Z,386.4
2022-08-06T05:22:33.909Z,385.3
2022-08-06T05:24:17.593Z,385.1
2022-08-06T05:26:01.309Z,385
2022-08-06T05:27:45.002Z,386.6
2022-08-06T05:29:28.699Z,385.7
2022-08-06T05:31:12.406Z,386.5
2022-08-06T05:32:56.112Z,386.3
2022-08-06T05:36:23.513Z,388.3
2022-08-06T05:38:07.217Z,385.2
2022-08-06T05:39:50.935Z,387.2
2022-08-06T05:41:34.617Z,387.8
2022-08-06T05:43:18.319Z,389.7
2022-08-06T05:45:02.043Z,389.6
2022-08-06T05:46:45.747Z,389.1
2022-08-06T05:48:29.427Z,389.9
2022-08-06T05:50:13.137Z,389.7
2022-08-06T05:51:56.853Z,389.9
2022-08-06T05:53:40.531Z,392
2022-08-06T05:55:24.237Z,391.3
2022-08-06T05:57:07.942Z,390.4
2022-08-06T05:58:51.635Z,392.5
2022-08-06T06:00:35.372Z,392.8
2022-08-06T06:04:02.755Z,389
2022-08-06T06:05:46.464Z,392.8
2022-08-06T06:07:30.149Z,392.9
2022-08-06T06:09:13.854Z,389.4
2022-08-06T06:10:57.559Z,389.8
2022-08-06T06:12:41.287Z,392.1
2022-08-06T06:14:24.954Z,390.1
2022-08-06T06:17:52.361Z,387.7
2022-08-06T06:19:36.062Z,386.1
2022-08-06T06:21:19.776Z,388.7
2022-08-06T06:23:03.492Z,389.4
2022-08-06T06:24:47.171Z,387.6
2022-08-06T06:26:30.880Z,389
2022-08-06T06:28:14.576Z,389
2022-08-06T06:29:58.275Z,389.3
2022-08-06T06:33:25.678Z,393.6
2022-08-06T06:35:09.392Z,396.7
2022-08-06T06:36:53.098Z,396.2
2022-08-06T06:38:36.794Z,395.1
2022-08-06T06:40:20.489Z,391.6
2022-08-06T06:42:04.190Z,387.6
2022-08-06T06:43:47.886Z,385.2
2022-08-06T06:47:15.301Z,389
2022-08-06T06:48:59.006Z,390.3
2022-08-06T06:50:49.722Z,390
2022-08-06T06:52:26.411Z,388.2
2022-08-06T06:54:10.122Z,389.6
2022-08-06T06:55:53.806Z,389
2022-08-06T06:57:37.513Z,387.5
2022-08-06T06:59:21.220Z,388
2022-08-06T07:01:04.911Z,388.2
2022-08-06T07:02:48.619Z,387.6
2022-08-06T07:04:32.329Z,384.9
2022-08-06T07:06:16.021Z,384.8
2022-08-06T07:07:59.754Z,385.6
2022-08-06T07:09:43.432Z,385.3
2022-08-06T07:11:27.139Z,385.9
2022-08-06T07:13:10.830Z,384.5
2022-08-06T07:14:54.532Z,385.7
2022-08-06T07:16:38.229Z,387.2
2022-08-06T07:18:21.936Z,388
2022-08-06T07:21:49.340Z,385.3
2022-08-06T07:23:33.040Z,382.7
2022-08-06T07:25:16.746Z,384.3
2022-08-06T07:27:00.450Z,387.9
2022-08-06T07:28:44.148Z,386.6
2022-08-06T07:30:27.846Z,385.8
2022-08-06T07:32:11.554Z,385
2022-08-06T07:33:55.250Z,385.2
2022-08-06T07:35:38.953Z,383.4
2022-08-06T07:37:22.668Z,381.5
2022-08-06T07:39:06.388Z,380.9
2022-08-06T07:40:50.065Z,381.8
2022-08-06T07:42:33.775Z,384.5
2022-08-06T07:44:17.463Z,385.5
2022-08-06T07:46:01.167Z,384.1
2022-08-06T07:47:44.867Z,384.1
2022-08-06T07:49:28.573Z,384.5
2022-08-06T07:51:12.290Z,383.4
2022-08-06T07:52:55.990Z,382.3
2022-08-06T07:54:39.684Z,382
2022-08-06T07:56:23.376Z,382.5
2022-08-06T07:58:07.080Z,382.4
2022-08-06T07:59:50.784Z,381.9
2022-08-06T08:01:34.482Z,385.6
2022-08-06T08:05:01.903Z,388.1
2022-08-06T08:06:45.588Z,389
2022-08-06T08:08:29.298Z,390.4
2022-08-06T08:10:13.001Z,389.6
2022-08-06T08:11:56.701Z,388.6
2022-08-06T08:13:40.401Z,389.7
2022-08-06T08:15:24.118Z,387.4
2022-08-06T08:17:07.809Z,386.4
2022-08-06T08:18:51.501Z,387.6
2022-08-06T08:20:35.213Z,388.2
2022-08-06T08:22:18.905Z,386.9
2022-08-06T08:24:02.614Z,388.1
2022-08-06T08:25:46.311Z,386.7
2022-08-06T08:27:30.028Z,383.9
2022-08-06T08:29:13.719Z,383.2
2022-08-06T08:30:57.446Z,383.4
2022-08-06T08:32:41.122Z,383.4
2022-08-06T08:34:24.818Z,382.4
2022-08-06T08:36:08.535Z,382.5
2022-08-06T08:37:52.222Z,388.5
2022-08-06T08:39:35.930Z,386.6
2022-08-06T08:41:19.619Z,387.1
2022-08-06T08:43:03.328Z,387.3
2022-08-06T08:44:47.022Z,388.6
2022-08-06T08:46:30.729Z,389.1
2022-08-06T08:48:14.428Z,389.8
2022-08-06T08:49:58.130Z,391.4
2022-08-06T08:51:41.828Z,389.4
2022-08-06T08:53:25.532Z,385.9
2022-08-06T08:55:09.241Z,386.8
2022-08-06T08:56:52.940Z,386.7
2022-08-06T08:58:36.644Z,385.5
2022-08-06T09:00:20.339Z,389.1
2022-08-06T09:02:04.037Z,390.3
2022-08-06T09:03:47.750Z,391
2022-08-06T09:05:31.444Z,386.5
2022-08-06T09:07:15.154Z,384.3
2022-08-06T09:08:58.850Z,384.2
2022-08-06T09:10:42.555Z,385.2
2022-08-06T09:12:26.258Z,386.4
2022-08-06T09:14:09.962Z,387.3
2022-08-06T09:15:53.660Z,386.1
2022-08-06T09:17:37.365Z,389.9
2022-08-06T09:19:21.063Z,389.8
2022-08-06T09:21:04.759Z,388.8
2022-08-06T09:22:48.470Z,389.2
2022-08-06T09:24:32.165Z,388.4
2022-08-06T09:26:15.871Z,387.5
2022-08-06T09:27:59.565Z,386.5
2022-08-06T09:29:43.274Z,387.3
2022-08-06T09:31:26.978Z,386.5
2022-08-06T09:33:10.671Z,385.1
2022-08-06T09:34:54.383Z,382.1
2022-08-06T09:36:38.091Z,381.4
2022-08-06T09:38:21.778Z,380.5
2022-08-06T09:40:05.481Z,384.1
2022-08-06T09:41:49.195Z,377.6
2022-08-06T09:43:32.886Z,378.2
2022-08-06T09:45:16.595Z,381.9
2022-08-06T09:47:00.292Z,379.8
2022-08-06T09:48:43.990Z,378.4
2022-08-06T09:50:27.709Z,380.6
2022-08-06T09:52:11.397Z,382.4
2022-08-06T09:53:55.098Z,388.1
2022-08-06T09:55:38.804Z,387.1
2022-08-06T09:57:22.501Z,388.4
2022-08-06T09:59:06.213Z,390.6
2022-08-06T10:00:49.905Z,393.6
2022-08-06T10:02:33.607Z,391.8
2022-08-06T10:04:17.311Z,389
2022-08-06T10:06:01.030Z,388.6
2022-08-06T10:07:46.682Z,386.9
2022-08-06T10:09:28.421Z,387.1
2022-08-06T10:11:12.111Z,388.1
2022-08-06T10:12:55.820Z,388.6
2022-08-06T10:14:39.524Z,385.1
2022-08-06T10:16:23.220Z,381.7
2022-08-06T10:18:06.930Z,383.6
2022-08-06T10:21:34.326Z,386.1
2022-08-06T10:23:18.030Z,388.2
2022-08-06T10:25:01.732Z,389.2
2022-08-06T10:26:45.439Z,390.7
2022-08-06T10:28:29.136Z,389.4
2022-08-06T10:30:12.860Z,390.8
2022-08-06T10:31:56.548Z,393.6
2022-08-06T10:33:40.250Z,391.2
2022-08-06T10:35:23.938Z,390.8
2022-08-06T10:37:07.643Z,391.1
2022-08-06T10:38:51.357Z,390.3
2022-08-06T10:40:35.048Z,390.4
2022-08-06T10:42:18.757Z,387.1
2022-08-06T10:44:02.454Z,388
2022-08-06T10:45:46.151Z,387.8
2022-08-06T10:47:29.861Z,390.8
2022-08-06T10:49:13.567Z,390.4
2022-08-06T10:50:57.270Z,391.3
2022-08-06T10:52:40.967Z,400.3
2022-08-06T10:54:24.668Z,408.9
2022-08-06T10:56:08.386Z,413.6
2022-08-06T10:57:52.075Z,416.8
2022-08-06T10:59:35.770Z,427.9
2022-08-06T11:01:19.491Z,432.1
2022-08-06T11:03:03.177Z,437.1
2022-08-06T11:04:46.876Z,443
2022-08-06T11:06:30.591Z,446.1
2022-08-06T11:08:14.306Z,445.4
2022-08-06T11:09:57.977Z,446
2022-08-06T11:11:41.705Z,445.7
2022-08-06T11:13:25.386Z,446.3
2022-08-06T11:15:09.088Z,444.9
2022-08-06T11:16:52.791Z,446.6
2022-08-06T11:18:36.494Z,442.5
2022-08-06T11:20:20.199Z,440.2
2022-08-06T11:22:03.892Z,439.9
2022-08-06T11:23:47.607Z,440.2
2022-08-06T11:25:31.309Z,440.7
2022-08-06T11:27:14.994Z,440.1
2022-08-06T11:28:58.698Z,439.1
2022-08-06T11:32:26.106Z,443.8
2022-08-06T11:34:09.813Z,443.7
2022-08-06T11:35:53.513Z,444
2022-08-06T11:37:37.211Z,442.6
2022-08-06T11:39:20.916Z,439
2022-08-06T11:41:04.638Z,444.5
2022-08-06T11:42:48.317Z,438.3
2022-08-06T11:44:32.041Z,436.1
2022-08-06T11:46:15.721Z,435.6
2022-08-06T11:47:59.420Z,435.1
2022-08-06T11:49:43.131Z,436.1
2022-08-06T11:51:26.824Z,438.2
2022-08-06T11:53:10.531Z,437.8
2022-08-06T11:54:54.239Z,433.4
2022-08-06T11:56:37.945Z,432.9
2022-08-06T11:58:21.646Z,430.3
2022-08-06T12:00:05.343Z,430.3
2022-08-06T12:01:49.049Z,432.2
2022-08-06T12:03:32.746Z,434.2
2022-08-06T12:05:16.458Z,431.2
2022-08-06T12:07:00.155Z,432.9
2022-08-06T12:08:43.851Z,435.9
2022-08-06T12:10:27.554Z,435.9
2022-08-06T12:12:11.279Z,435.8
2022-08-06T12:13:54.954Z,435.5
2022-08-06T12:15:38.656Z,435.4
2022-08-06T12:17:22.364Z,436.6
2022-08-06T12:19:06.062Z,433.8
2022-08-06T12:20:49.758Z,432.9
2022-08-06T12:22:33.473Z,434.4
2022-08-06T12:24:17.184Z,438.1
2022-08-06T12:26:00.877Z,438.9
2022-08-06T12:27:44.569Z,438.8
2022-08-06T12:29:28.277Z,438
2022-08-06T12:31:11.973Z,434.8
2022-08-06T12:32:55.674Z,435
2022-08-06T12:34:39.427Z,437.3
2022-08-06T12:36:23.080Z,443.5
2022-08-06T12:38:06.786Z,448.8
2022-08-06T12:39:50.477Z,450
2022-08-06T12:41:34.185Z,453.8
2022-08-06T12:43:17.922Z,454.3
2022-08-06T12:45:01.593Z,454.4
2022-08-06T12:46:45.291Z,453.6
2022-08-06T12:48:29.004Z,453.9
2022-08-06T12:50:12.694Z,455.8
2022-08-06T12:51:56.400Z,451.7
2022-08-06T12:53:40.154Z,449.5
2022-08-06T12:55:23.834Z,449.7
2022-08-06T12:57:07.514Z,449.2
2022-08-06T12:58:51.210Z,450.6
2022-08-06T13:00:34.910Z,448.3
2022-08-06T13:02:18.616Z,445.9
2022-08-06T13:04:02.326Z,446.5
2022-08-06T13:05:46.024Z,448
2022-08-06T13:07:29.729Z,447.3
2022-08-06T13:09:13.429Z,447.4
2022-08-06T13:10:57.113Z,448.2
2022-08-06T13:12:40.825Z,449.1
2022-08-06T13:14:24.532Z,450.1
2022-08-06T13:16:08.219Z,448.4
2022-08-06T13:17:51.929Z,448
2022-08-06T13:19:35.630Z,447.7
2022-08-06T13:21:19.329Z,448.4
2022-08-06T13:23:03.044Z,448.6
2022-08-06T13:24:46.729Z,448.1
2022-08-06T13:26:30.438Z,446.4
2022-08-06T13:28:14.142Z,448.6
2022-08-06T13:29:57.840Z,447.3
2022-08-06T13:31:41.536Z,447.8
2022-08-06T13:33:25.239Z,446.9
2022-08-06T13:35:08.958Z,443.8
2022-08-06T13:36:52.643Z,445.2
2022-08-06T13:38:36.352Z,447.5
2022-08-06T13:40:20.051Z,447.9
2022-08-06T13:42:03.759Z,446.9
2022-08-06T13:43:47.452Z,447.8
2022-08-06T13:45:31.155Z,447.3
2022-08-06T13:47:14.862Z,445.5
2022-08-06T13:48:58.556Z,446.6
2022-08-06T13:50:42.265Z,449.1
2022-08-06T13:52:25.972Z,448.9
2022-08-06T13:54:09.667Z,449.2
2022-08-06T13:55:53.389Z,448
2022-08-06T13:57:37.069Z,450
2022-08-06T13:59:20.775Z,451.4
2022-08-06T14:01:04.480Z,450.1
2022-08-06T14:02:48.183Z,450.7
2022-08-06T14:04:31.898Z,452.4
2022-08-06T14:06:15.586Z,449.3
2022-08-06T14:07:59.287Z,452.8
2022-08-06T14:09:42.991Z,455.5
2022-08-06T14:11:26.684Z,455.2
2022-08-06T14:13:10.389Z,456.1
2022-08-06T14:14:54.094Z,453.1
2022-08-06T14:16:37.785Z,451.4
2022-08-06T14:18:21.492Z,453.7
2022-08-06T14:20:05.192Z,455.5
2022-08-06T14:21:48.893Z,454.4
2022-08-06T14:25:16.303Z,447.7
2022-08-06T14:27:00.005Z,447.9
2022-08-06T14:28:43.710Z,450
2022-08-06T14:30:27.398Z,447.8
2022-08-06T14:32:11.103Z,448
2022-08-06T14:33:54.811Z,447.8
2022-08-06T14:35:38.525Z,446.5
2022-08-06T14:37:22.214Z,446.1
2022-08-06T14:39:05.923Z,446.7
2022-08-06T14:40:49.614Z,448.3
2022-08-06T14:42:33.325Z,450.8
2022-08-06T14:44:17.072Z,451.3
2022-08-06T14:46:00.717Z,451
2022-08-06T14:47:44.428Z,450.9
2022-08-06T14:49:28.119Z,449.2
2022-08-06T14:51:11.824Z,446.7
2022-08-06T14:52:55.545Z,447.7
2022-08-06T14:54:39.237Z,448.7
2022-08-06T14:56:22.937Z,453.3
2022-08-06T14:58:06.644Z,454.8
2022-08-06T14:59:50.346Z,454.2
2022-08-06T15:01:34.044Z,454.3
2022-08-06T15:03:17.742Z,455.1
2022-08-06T15:05:01.453Z,452.8
2022-08-06T15:06:45.155Z,455.2
2022-08-06T15:08:28.858Z,455.3
2022-08-06T15:10:12.551Z,458.9
2022-08-06T15:11:56.263Z,457.5
2022-08-06T15:13:39.947Z,458.3
2022-08-06T15:15:23.673Z,457.4
2022-08-06T15:17:07.350Z,458.9
2022-08-06T15:18:51.060Z,462.2
2022-08-06T15:20:34.789Z,461.1
2022-08-06T15:22:18.453Z,454.3
2022-08-06T15:24:02.173Z,451.1
2022-08-06T15:25:45.855Z,450.3
2022-08-06T15:27:29.559Z,450.6
2022-08-06T15:29:13.269Z,447.6
2022-08-06T15:30:56.964Z,440.8
2022-08-06T15:32:40.663Z,431.2
2022-08-06T15:34:24.372Z,425.2
2022-08-06T15:36:08.077Z,430.4
2022-08-06T15:37:51.791Z,436.2
2022-08-06T15:39:35.473Z,440.6
2022-08-06T15:41:19.193Z,435.9
2022-08-06T15:43:02.901Z,425.5
2022-08-06T15:44:46.591Z,423
2022-08-06T15:46:30.283Z,430.4
2022-08-06T15:48:13.995Z,434.5
2022-08-06T15:49:57.686Z,432
2022-08-06T15:51:41.383Z,427.8
2022-08-06T15:53:25.092Z,425.2
2022-08-06T15:55:08.802Z,424.2
2022-08-06T15:56:52.511Z,420.8
2022-08-06T15:58:36.205Z,418.4
2022-08-06T16:00:19.899Z,417.9
2022-08-06T16:02:03.612Z,415.7
2022-08-06T16:03:47.298Z,417.6
2022-08-06T16:05:31.013Z,417.5
2022-08-06T16:07:14.711Z,416.3
2022-08-06T16:08:58.403Z,420.4
2022-08-06T16:10:42.114Z,424.7
2022-08-06T16:12:25.806Z,419.2
2022-08-06T16:14:09.514Z,414.7
2022-08-06T16:15:53.230Z,411.6
2022-08-06T16:17:36.920Z,408.8
2022-08-06T16:19:20.631Z,407.2
2022-08-06T16:21:04.345Z,408.7
2022-08-06T16:22:48.020Z,409.3
2022-08-06T16:24:31.732Z,409.7
2022-08-06T16:26:15.459Z,410.5
2022-08-06T16:27:59.123Z,411.1
2022-08-06T16:29:42.848Z,409.9
2022-08-06T16:31:26.549Z,408
2022-08-06T16:33:10.250Z,409.4
2022-08-06T16:34:53.969Z,409
2022-08-06T16:36:37.636Z,406.1
2022-08-06T16:38:21.337Z,402.2
2022-08-06T16:40:05.044Z,400.1
2022-08-06T16:41:48.742Z,399.7
2022-08-06T16:43:32.450Z,400.6
2022-08-06T16:45:16.150Z,401
2022-08-06T16:46:59.849Z,399.1
2022-08-06T16:48:43.548Z,398.6
2022-08-06T16:50:27.247Z,399.5
2022-08-06T16:52:10.954Z,394.4
2022-08-06T16:53:54.657Z,392.3
2022-08-06T16:55:38.361Z,392
2022-08-06T16:57:22.066Z,392.8
2022-08-06T16:59:05.763Z,393.1
2022-08-06T17:00:49.454Z,396.4
2022-08-06T17:02:33.157Z,400.6
2022-08-06T17:04:16.905Z,404.4
2022-08-06T17:06:00.595Z,402.6
2022-08-06T17:07:44.271Z,400.6
2022-08-06T17:09:27.974Z,399.1
2022-08-06T17:11:11.676Z,395.3
2022-08-06T17:12:55.379Z,394.1
2022-08-06T17:14:39.079Z,391.8
2022-08-06T17:16:22.783Z,389.2
2022-08-06T17:18:06.521Z,391.8
2022-08-06T17:19:50.189Z,393.6
2022-08-06T17:21:33.875Z,393.3
2022-08-06T17:23:17.588Z,392
2022-08-06T17:25:01.287Z,393.2
2022-08-06T17:26:44.987Z,393.4
2022-08-06T17:28:28.688Z,390.6
2022-08-06T17:30:12.399Z,391.2
2022-08-06T17:31:56.092Z,397.7
2022-08-06T17:33:39.793Z,398.5
2022-08-06T17:35:23.504Z,395.2
2022-08-06T17:37:07.209Z,395
2022-08-06T17:38:50.895Z,395.7
2022-08-06T17:40:34.600Z,394.8
2022-08-06T17:42:18.312Z,395.5
2022-08-06T17:44:02.029Z,395.9
2022-08-06T17:45:45.705Z,393.5
2022-08-06T17:47:29.418Z,393.6
2022-08-06T17:49:13.132Z,392
2022-08-06T17:50:56.839Z,393.8
2022-08-06T17:52:40.519Z,394.5
2022-08-06T17:54:24.222Z,395.5
2022-08-06T17:56:07.932Z,396.6
2022-08-06T17:57:51.621Z,398.9
2022-08-06T17:59:35.323Z,396
2022-08-06T18:01:19.032Z,393.7
2022-08-06T18:03:02.734Z,391.3
2022-08-06T18:04:46.450Z,389.5
2022-08-06T18:06:30.128Z,393.6
2022-08-06T18:08:13.838Z,396.4
2022-08-06T18:09:57.537Z,396.8
2022-08-06T18:11:41.233Z,396
2022-08-06T18:13:24.939Z,400
2022-08-06T18:15:08.649Z,398.7
2022-08-06T18:16:52.354Z,396.7
2022-08-06T18:18:36.053Z,394
2022-08-06T18:20:19.757Z,393.8
2022-08-06T18:22:03.464Z,389.4
2022-08-06T18:23:47.165Z,391.1
2022-08-06T18:25:30.873Z,392.2
2022-08-06T18:27:14.566Z,392.2
2022-08-06T18:28:58.268Z,390.2
2022-08-06T18:30:41.960Z,388.7
2022-08-06T18:32:25.666Z,392.3
2022-08-06T18:34:09.489Z,392.5
2022-08-06T18:35:53.060Z,393.6
2022-08-06T18:37:36.767Z,390
2022-08-06T18:39:20.474Z,387.1
2022-08-06T18:41:04.198Z,383
2022-08-06T18:42:47.915Z,382.7
2022-08-06T18:44:31.592Z,386.1
2022-08-06T18:46:15.286Z,389.7
2022-08-06T18:47:59.020Z,391.8
2022-08-06T18:49:42.697Z,389.7
2022-08-06T18:51:26.397Z,387.3
2022-08-06T18:53:10.098Z,386.9
2022-08-06T18:54:53.806Z,389.9
2022-08-06T18:56:37.495Z,392.1
2022-08-06T18:58:21.214Z,393.4
2022-08-06T19:00:04.898Z,392.9
2022-08-06T19:01:48.625Z,393.8
2022-08-06T19:03:32.294Z,397
2022-08-06T19:05:16.026Z,395.9
2022-08-06T19:06:59.706Z,395.2
2022-08-06T19:08:43.404Z,393
2022-08-06T19:10:27.125Z,391.4
2022-08-06T19:12:10.822Z,390.4
2022-08-06T19:13:54.509Z,390.1
2022-08-06T19:15:38.208Z,392.1
2022-08-06T19:17:21.939Z,393
2022-08-06T19:19:05.624Z,391.2
2022-08-06T19:20:49.323Z,388.8
2022-08-06T19:22:33.018Z,391.9
2022-08-06T19:24:16.721Z,393.2
2022-08-06T19:26:00.432Z,393.7
2022-08-06T19:27:44.119Z,391.1
2022-08-06T19:29:27.850Z,392.4
2022-08-06T19:31:11.533Z,393.2
2022-08-06T19:32:55.234Z,393.4
2022-08-06T19:34:38.969Z,391.4
2022-08-06T19:36:22.647Z,391.6
2022-08-06T19:38:06.368Z,390.8
2022-08-06T19:39:50.047Z,391.3
2022-08-06T19:41:33.746Z,389.7
2022-08-06T19:43:17.449Z,386.1
2022-08-06T19:45:01.183Z,384.2
2022-08-06T19:46:44.859Z,384.8
2022-08-06T19:48:28.553Z,387.6
2022-08-06T19:50:12.259Z,388.7
2022-08-06T19:51:55.961Z,390.6
2022-08-06T19:53:39.673Z,392
2022-08-06T19:55:23.371Z,389.3
2022-08-06T19:57:07.067Z,390.5
2022-08-06T19:58:50.771Z,391.3
2022-08-06T20:00:34.463Z,390
2022-08-06T20:02:18.164Z,385.7
2022-08-06T20:04:01.876Z,386.2
2022-08-06T20:05:45.578Z,382.2
2022-08-06T20:07:29.272Z,382.8
2022-08-06T20:09:12.980Z,382.7
2022-08-06T20:10:56.702Z,383.8
2022-08-06T20:12:40.418Z,384.5
2022-08-06T20:14:24.084Z,388
2022-08-06T20:16:07.799Z,389.9
2022-08-06T20:17:51.513Z,389
2022-08-06T20:19:35.180Z,389.9
2022-08-06T20:21:18.886Z,388.8
2022-08-06T20:23:02.593Z,388.6
2022-08-06T20:24:46.319Z,388.1
2022-08-06T20:26:29.985Z,389.6
2022-08-06T20:28:13.697Z,388.6
2022-08-06T20:29:57.394Z,387.2
2022-08-06T20:31:41.097Z,387.2
2022-08-06T20:33:24.798Z,388.9
2022-08-06T20:35:08.526Z,388.2
2022-08-06T20:36:52.206Z,387.1
2022-08-06T20:38:35.904Z,387.3
2022-08-06T20:40:19.601Z,389.9
2022-08-06T20:42:03.309Z,391
2022-08-06T20:43:47.020Z,393.1
2022-08-06T20:45:30.708Z,394
2022-08-06T20:47:14.438Z,394.6
2022-08-06T20:48:58.117Z,396
2022-08-06T20:50:41.828Z,392.9
2022-08-06T20:52:25.522Z,391
2022-08-06T20:54:09.230Z,392.3
2022-08-06T20:55:52.930Z,389.4
2022-08-06T20:57:36.636Z,390.4
2022-08-06T20:59:20.330Z,392.6
2022-08-06T21:01:04.041Z,393.4
2022-08-06T21:02:47.722Z,391.8
2022-08-06T21:04:31.427Z,392.7
2022-08-06T21:06:15.135Z,395.8
2022-08-06T21:07:58.861Z,396.5
2022-08-06T21:09:42.550Z,397.4
2022-08-06T21:11:26.238Z,396.2
2022-08-06T21:13:09.949Z,393.4
2022-08-06T21:14:53.650Z,391.9
2022-08-06T21:16:37.341Z,387.5
2022-08-06T21:18:21.056Z,388.3
2022-08-06T21:20:04.755Z,395.8
2022-08-06T21:21:48.468Z,399
2022-08-06T21:23:32.153Z,397.3
2022-08-06T21:25:15.858Z,401
2022-08-06T21:26:59.583Z,396.1
2022-08-06T21:28:43.272Z,392.2
2022-08-06T21:30:26.957Z,391.6
2022-08-06T21:32:10.660Z,394.9
2022-08-06T21:33:54.380Z,398.9
2022-08-06T21:35:38.070Z,398.9
2022-08-06T21:37:21.789Z,399.7
2022-08-06T21:39:05.480Z,397
2022-08-06T21:40:49.175Z,396.9
2022-08-06T21:42:32.898Z,398.4
2022-08-06T21:44:16.600Z,402.1
2022-08-06T21:46:00.277Z,399
2022-08-06T21:47:43.989Z,397.7
2022-08-06T21:49:27.693Z,397.9
2022-08-06T21:51:11.382Z,400.4
2022-08-06T21:52:55.089Z,402.2
2022-08-06T21:54:38.810Z,405.1
2022-08-06T21:56:22.492Z,404.2
2022-08-06T21:58:06.205Z,404
2022-08-06T21:59:49.926Z,401.2
2022-08-06T22:01:33.600Z,401.6
2022-08-06T22:03:17.308Z,402
2022-08-06T22:05:00.999Z,401.5
2022-08-06T22:06:44.709Z,403.3
2022-08-06T22:08:28.411Z,405.9
2022-08-06T22:10:12.109Z,405.5
2022-08-06T22:11:55.807Z,405
2022-08-06T22:13:39.523Z,403.1
2022-08-06T22:15:23.210Z,400.5
2022-08-06T22:17:06.934Z,400.7
2022-08-06T22:18:50.632Z,404.3
2022-08-06T22:20:34.325Z,403.2
2022-08-06T22:22:18.021Z,403.7
2022-08-06T22:24:01.751Z,405.5
2022-08-06T22:25:45.430Z,405
2022-08-06T22:27:29.130Z,406.6
2022-08-06T22:29:12.831Z,407.5
2022-08-06T22:30:56.553Z,406
2022-08-06T22:32:40.239Z,406.1
2022-08-06T22:36:07.631Z,405.7
2022-08-06T22:37:51.337Z,403.3
2022-08-06T22:39:35.038Z,402.6
2022-08-06T22:41:18.750Z,401.4
2022-08-06T22:43:02.458Z,405.3
2022-08-06T22:46:29.865Z,406.4
2022-08-06T22:48:13.560Z,404.6